GMMNLPMA

Guest
Details From GMMN - Casablanca Mohammed V Intl
To LPMA - Madeira
Flight Number -
Tags Generated
Created
Modified
Stats Distance 465 nm / 861 km
Max Altitude 0 ft / 0 m
Waypoints 3
Social Downloads 2
Likes 0
Share VATSIM

Download

Looking for another format? Having issues loading an existing format? Contact us
Advertisement - Login to hide

Notes

Generated

Route

GMMN FUN LPMA

ID Type Via Altitude Latitude Longitude Leg Dist Tot Dist Heading (true) Name
O GMMN APT - 0 ft / 0 m 33.38306˚ -7.59743˚ - 0 nm - -
FUN VOR - 0 ft / 0 m 32.74704˚ -16.70569˚ 459 nm 459 nm 268° / 263° MADEIRA VOR-DME
O LPMA APT - 0 ft / 0 m 32.68900˚ -16.78409˚ 5 nm 465 nm 229° / 229° -

Altitude Profile

Advertisement - Login to hide

Weather


0- 5 10 15 20 25 30 35+ Temperature / ° C

Clouds and Precipitation
Forecast for 2017-12-16 12:00 UTC. Updated 19 minutes ago

Ground ~20,000 ft ~40,000 ft Winds

GMMN

Details ICAO GMMN (CMN)
Name Casablanca Mohammed V Intl
Region Morocco
Timezone Africa/Casablanca (UTC+0.0)
Stats Elevation 656 ft / 200 m (AMSL)
Location 33.367466° -7.589964°
Runways 2
Magnetic Variation 1.816° W

METAR

GMMN 161130Z 34009KT 9999 BKN020 14/14 Q1021 NOSIG

Decode

TAF

TAF TAF GMMN 152300Z 1600/1706 24010KT 8000 BKN020 BKN080 TEMPO 1600/1609 6000 RA BECMG 1610/1614 36012KT 9999 SCT016 SCT020 TEMPO 1620/1706 02008KT 6000 SCT010 SCT016

Decode

Departure Runways

ID Width Length Bearing (true) Bearing (mag) Surface Threshold Offset Overrun Length
17L 148 ft / 45 m 12,224 ft / 3,726 m 164.03° 165.85° Asphalt 0 ft / 0 m 295 ft / 90 m
17R 148 ft / 45 m 12,196 ft / 3,717 m 164.03° 165.85° Asphalt 0 ft / 0 m 197 ft / 60 m
35L 148 ft / 45 m 12,196 ft / 3,717 m 344.04° 345.86° Asphalt 0 ft / 0 m 180 ft / 55 m
35R 148 ft / 45 m 12,224 ft / 3,726 m 344.04° 345.86° Asphalt 0 ft / 0 m 995 ft / 303 m

LPMA

Details ICAO LPMA (FNC)
Name Madeira
Region Portugal
Timezone Atlantic/Madeira (UTC+0.0)
Stats Elevation 192 ft / 59 m (AMSL)
Location 32.697704° -16.774449°
Runways 1
Magnetic Variation 4.981° W

METAR

LPMA 161130Z 36008KT 280V040 9999 -DZ BKN013 FEW015TCU 20/16 Q1024

Decode

TAF

TAF LPMA 160500Z 1606/1706 35010KT 9999 SCT013 BKN030 TEMPO 1606/1620 6000 -RA BKN013 BECMG 1613/1615 04015KT

Decode

Destination Runways

ID Width Length Bearing (true) Bearing (mag) Surface Threshold Offset Overrun Length
05 141 ft / 43 m 8,683 ft / 2,647 m 42.98° 47.96° Asphalt 472 ft / 144 m 0 ft / 0 m
23 141 ft / 43 m 8,683 ft / 2,647 m 222.99° 227.97° Asphalt 466 ft / 142 m 0 ft / 0 m

Popular Alternatives